createdAt,value
2019-05-16T00:04:33.726Z,1.53
2019-05-16T00:09:38.016Z,1.37
2019-05-16T00:14:41.150Z,1.87
2019-05-16T00:19:43.208Z,1.57
2019-05-16T00:24:45.471Z,1.53
2019-05-16T00:29:48.730Z,1.53
2019-05-16T00:34:50.937Z,1.20
2019-05-16T00:39:53.146Z,1.37
2019-05-16T00:44:55.297Z,1.50
2019-05-16T00:49:58.248Z,1.60
2019-05-16T00:55:02.850Z,1.60
2019-05-16T01:00:08.114Z,1.60
2019-05-16T01:05:09.729Z,1.33
2019-05-16T01:10:11.953Z,1.20
2019-05-16T01:15:18.363Z,1.10
2019-05-16T01:20:20.439Z,1.27
2019-05-16T01:25:22.490Z,1.30
2019-05-16T01:30:24.848Z,1.20
2019-05-16T01:35:27.892Z,1.10
2019-05-16T01:40:30.225Z,1.00
2019-05-16T01:45:32.278Z,1.20
2019-05-16T01:50:34.405Z,0.97
2019-05-16T01:55:38.114Z,1.37
2019-05-16T02:00:52.516Z,1.20
2019-05-16T02:05:47.926Z,1.20
2019-05-16T02:10:49.559Z,1.10
2019-05-16T02:15:51.663Z,1.20
2019-05-16T02:20:53.714Z,1.10
2019-05-16T02:25:57.823Z,1.30
2019-05-16T02:31:01.311Z,1.03
2019-05-16T02:36:03.740Z,1.00
2019-05-16T02:41:05.851Z,0.90
2019-05-16T02:46:11.615Z,1.07
2019-05-16T02:51:11.951Z,1.10
2019-05-16T02:56:14.162Z,0.90
2019-05-16T03:01:16.265Z,1.03
2019-05-16T03:06:21.145Z,1.20
2019-05-16T03:11:24.114Z,1.30
2019-05-16T03:16:31.600Z,1.50
2019-05-16T03:21:34.051Z,1.40
2019-05-16T03:26:36.799Z,1.30
2019-05-16T03:31:44.435Z,1.50
2019-05-16T03:36:43.881Z,1.57
2019-05-16T03:41:46.677Z,1.50
2019-05-16T03:46:51.687Z,1.50
2019-05-16T03:51:52.720Z,1.70
2019-05-16T03:56:54.814Z,1.80
2019-05-16T04:01:56.889Z,1.60
2019-05-16T04:07:01.443Z,1.60
2019-05-16T04:12:04.035Z,1.30
2019-05-16T04:17:06.101Z,1.87
2019-05-16T04:22:13.600Z,1.50
2019-05-16T04:27:15.651Z,1.67
2019-05-16T04:32:20.549Z,1.43
2019-05-16T04:37:26.039Z,1.60
2019-05-16T04:42:25.933Z,1.90
2019-05-16T04:47:31.450Z,1.70
2019-05-16T04:52:32.140Z,1.67
2019-05-16T04:57:37.815Z,1.80
2019-05-16T05:02:41.785Z,1.53
2019-05-16T05:07:44.193Z,1.50
2019-05-16T05:12:46.265Z,1.50
2019-05-16T05:18:21.754Z,1.50
2019-05-16T05:23:24.876Z,1.57
2019-05-16T05:28:26.964Z,1.73
2019-05-16T05:33:30.315Z,1.80
2019-05-16T05:38:34.919Z,1.87
2019-05-16T05:43:37.013Z,1.90
2019-05-16T05:48:41.098Z,1.63
2019-05-16T05:53:45.463Z,1.60
2019-05-16T05:58:47.524Z,2.27
2019-05-16T06:03:50.493Z,1.50
2019-05-16T06:08:52.971Z,1.73
2019-05-16T06:13:57.188Z,1.50
2019-05-16T06:19:00.888Z,1.57
2019-05-16T06:24:05.034Z,1.80
2019-05-16T06:29:10.181Z,1.80
2019-05-16T06:34:15.222Z,1.60
2019-05-16T06:39:16.220Z,1.90
2019-05-16T06:44:20.313Z,1.50
2019-05-16T06:49:22.331Z,1.50
2019-05-16T06:54:24.466Z,1.80
2019-05-16T06:59:26.539Z,1.63
2019-05-16T07:04:30.472Z,1.77
2019-05-16T07:09:32.808Z,1.50
2019-05-16T07:14:35.579Z,1.60
2019-05-16T07:19:37.688Z,1.40
2019-05-16T07:24:40.027Z,1.57
2019-05-16T07:29:43.691Z,1.50
2019-05-16T07:34:45.783Z,1.30
2019-05-16T07:39:50.876Z,1.43
2019-05-16T07:44:52.083Z,1.30
2019-05-16T07:49:54.145Z,1.33
2019-05-16T07:54:56.088Z,1.50
2019-05-16T08:00:00.173Z,1.70
2019-05-16T08:05:03.772Z,1.40
2019-05-16T08:10:06.119Z,1.40
2019-05-16T08:15:10.180Z,1.57
2019-05-16T08:20:13.024Z,1.50
2019-05-16T08:25:15.136Z,1.50
2019-05-16T08:30:20.805Z,1.27
2019-05-16T08:35:22.938Z,1.70
2019-05-16T08:40:24.983Z,1.67
2019-05-16T08:45:27.506Z,1.57
2019-05-16T08:50:34.728Z,1.23
2019-05-16T08:55:33.555Z,1.80
2019-05-16T09:00:35.689Z,1.60
2019-05-16T09:05:37.801Z,1.57
2019-05-16T09:10:51.372Z,1.57
2019-05-16T09:15:48.010Z,1.80
2019-05-16T09:20:50.323Z,1.90
2019-05-16T09:25:53.151Z,2.03
2019-05-16T09:30:57.750Z,1.60
2019-05-16T09:35:59.347Z,1.97
2019-05-16T09:41:07.915Z,1.40
2019-05-16T09:46:09.556Z,1.97
2019-05-16T09:51:11.786Z,1.70
2019-05-16T09:56:16.651Z,1.70
2019-05-16T10:01:17.847Z,1.73
2019-05-16T10:06:22.100Z,1.57
2019-05-16T10:11:31.228Z,1.00
2019-05-16T10:16:30.291Z,2.00
2019-05-16T10:21:36.972Z,2.97
2019-05-16T10:26:38.482Z,1.73
2019-05-16T10:31:48.466Z,1.60
2019-05-16T10:36:47.069Z,1.33
2019-05-16T10:41:48.531Z,1.20
2019-05-16T10:46:50.697Z,1.30
2019-05-16T10:51:57.546Z,1.30
2019-05-16T10:56:59.403Z,1.90
2019-05-16T11:02:01.725Z,2.17
2019-05-16T11:07:05.476Z,1.80
2019-05-16T11:12:07.537Z,2.03
2019-05-16T11:17:12.878Z,2.20
2019-05-16T11:22:13.693Z,2.63
2019-05-16T11:27:15.832Z,3.33
2019-05-16T11:32:17.962Z,3.50
2019-05-16T11:37:19.994Z,4.07
2019-05-16T11:42:22.075Z,5.57
2019-05-16T11:47:24.145Z,4.93
2019-05-16T11:52:26.212Z,4.80
2019-05-16T11:57:28.243Z,4.33
2019-05-16T12:02:30.350Z,6.00
2019-05-16T12:07:34.742Z,4.40
2019-05-16T12:12:38.687Z,4.27
2019-05-16T12:17:40.765Z,3.60
2019-05-16T12:22:42.833Z,3.50
2019-05-16T12:27:44.937Z,3.20
2019-05-16T12:32:47.224Z,3.63
2019-05-16T12:37:51.912Z,3.63
2019-05-16T12:42:54.465Z,3.33
2019-05-16T12:47:57.420Z,3.80
2019-05-16T12:52:59.750Z,3.37
2019-05-16T12:58:12.574Z,2.90
2019-05-16T13:03:07.190Z,2.47
2019-05-16T13:08:09.712Z,2.57
2019-05-16T13:13:11.868Z,2.43
2019-05-16T13:18:16.737Z,2.40
2019-05-16T13:23:18.531Z,2.30
2019-05-16T13:28:20.750Z,2.30
2019-05-16T13:33:27.979Z,2.70
2019-05-16T13:38:30.107Z,2.57
2019-05-16T13:43:32.171Z,2.13
2019-05-16T13:48:34.262Z,1.80
2019-05-16T13:53:37.013Z,1.97
2019-05-16T13:58:39.286Z,1.70
2019-05-16T14:03:43.220Z,1.90
2019-05-16T14:08:46.767Z,1.90
2019-05-16T14:13:49.052Z,2.37
2019-05-16T14:18:52.234Z,1.90
2019-05-16T14:23:56.777Z,2.00
2019-05-16T14:28:58.934Z,2.10
2019-05-16T14:34:01.475Z,1.83
2019-05-16T14:39:05.823Z,1.70
2019-05-16T14:44:07.972Z,1.77
2019-05-16T14:49:11.126Z,1.70
2019-05-16T14:54:13.230Z,2.07
2019-05-16T14:59:15.261Z,1.70
2019-05-16T15:04:17.357Z,2.30
2019-05-16T15:09:19.378Z,5.80
2019-05-16T15:14:21.477Z,1.90
2019-05-16T15:19:23.561Z,2.20
2019-05-16T15:24:26.854Z,2.30
2019-05-16T15:29:29.239Z,2.60
2019-05-16T15:34:34.476Z,2.80
2019-05-16T15:39:37.390Z,2.40
2019-05-16T15:44:42.939Z,2.20
2019-05-16T15:49:47.561Z,2.37
2019-05-16T15:54:49.644Z,2.27
2019-05-16T15:59:51.702Z,2.60
2019-05-16T16:04:53.747Z,2.57
2019-05-16T16:09:57.654Z,2.60
2019-05-16T16:15:01.301Z,2.50
2019-05-16T16:20:03.497Z,3.00
2019-05-16T16:25:06.845Z,2.43
2019-05-16T16:30:09.472Z,3.47
2019-05-16T16:35:14.060Z,3.03
2019-05-16T16:40:17.574Z,3.50
2019-05-16T16:45:20.083Z,2.53
2019-05-16T16:50:22.214Z,2.80
2019-05-16T16:55:27.389Z,2.40
2019-05-16T17:00:29.162Z,3.13
2019-05-16T17:05:31.238Z,3.20
2019-05-16T17:10:33.328Z,3.80
2019-05-16T17:15:36.809Z,3.27
2019-05-16T17:20:40.492Z,3.60
2019-05-16T17:25:42.573Z,2.87
2019-05-16T17:30:46.863Z,2.93
2019-05-16T17:35:49.171Z,2.80
2019-05-16T17:40:51.543Z,3.97
2019-05-16T17:45:53.555Z,4.40
2019-05-16T17:50:57.067Z,3.60
2019-05-16T17:55:59.259Z,4.07
2019-05-16T18:01:01.318Z,3.50
2019-05-16T18:06:03.362Z,3.90
2019-05-16T18:11:07.223Z,3.97
2019-05-16T18:16:13.878Z,3.60
2019-05-16T18:21:16.989Z,3.50
2019-05-16T18:26:19.337Z,3.63
2019-05-16T18:31:21.385Z,4.17
2019-05-16T18:36:23.605Z,3.70
2019-05-16T18:41:27.178Z,5.20
2019-05-16T18:46:29.408Z,5.17
2019-05-16T18:51:31.523Z,4.50
2019-05-16T18:56:36.566Z,4.10
2019-05-16T19:01:39.943Z,4.37
2019-05-16T19:06:42.025Z,4.23
2019-05-16T19:11:44.088Z,7.20
2019-05-16T19:16:48.919Z,4.90
2019-05-16T19:21:50.147Z,4.67
2019-05-16T19:26:53.251Z,4.63
2019-05-16T19:31:57.108Z,4.73
2019-05-16T19:36:59.321Z,5.43
2019-05-16T19:42:01.445Z,5.67
2019-05-16T19:47:03.507Z,6.20
2019-05-16T19:52:07.228Z,5.47
2019-05-16T19:57:09.476Z,6.40
2019-05-16T20:02:11.532Z,6.73
2019-05-16T20:07:13.569Z,6.93
2019-05-16T20:12:16.874Z,6.07
2019-05-16T20:17:19.434Z,7.57
2019-05-16T20:22:21.661Z,7.90
2019-05-16T20:27:23.733Z,6.73
2019-05-16T20:32:27.626Z,6.83
2019-05-16T20:37:29.801Z,6.87
2019-05-16T20:42:31.863Z,6.67
2019-05-16T20:47:33.907Z,7.67
2019-05-16T20:52:37.900Z,6.70
2019-05-16T20:57:39.954Z,7.33
2019-05-16T21:02:42.054Z,6.90
2019-05-16T21:07:46.077Z,7.10
2019-05-16T21:12:49.082Z,7.13
2019-05-16T21:17:51.190Z,7.30
2019-05-16T21:22:53.287Z,8.07
2019-05-16T21:27:57.325Z,9.90
2019-05-16T21:32:59.340Z,8.50
2019-05-16T21:38:01.413Z,8.83
2019-05-16T21:43:03.606Z,8.27
2019-05-16T21:48:07.451Z,8.90
2019-05-16T21:53:09.723Z,9.30
2019-05-16T21:58:11.731Z,9.20
2019-05-16T22:03:14.316Z,10.10
2019-05-16T22:08:16.883Z,11.10
2019-05-16T22:13:19.034Z,9.83
2019-05-16T22:18:21.216Z,11.80
2019-05-16T22:23:23.295Z,11.23
2019-05-16T22:28:27.538Z,11.03
2019-05-16T22:33:29.561Z,10.37
2019-05-16T22:38:31.733Z,11.83
2019-05-16T22:43:33.857Z,10.87
2019-05-16T22:48:37.242Z,9.17
2019-05-16T22:53:39.374Z,9.73
2019-05-16T22:58:41.492Z,10.07
2019-05-16T23:03:43.561Z,9.53
2019-05-16T23:08:47.116Z,8.87
2019-05-16T23:13:49.443Z,11.30
2019-05-16T23:18:51.496Z,10.23
2019-05-16T23:23:57.107Z,10.50
2019-05-16T23:28:59.369Z,9.33
2019-05-16T23:34:01.403Z,11.40
2019-05-16T23:39:06.263Z,10.87
2019-05-16T23:44:08.416Z,10.23
2019-05-16T23:49:10.509Z,10.23
2019-05-16T23:54:12.710Z,10.60
2019-05-16T23:59:16.995Z,11.03
